createdAt,value
2022-11-21T00:02:35.553Z,2.60
2022-11-21T00:05:21.345Z,2.58
2022-11-21T00:08:07.977Z,2.60
2022-11-21T00:10:54.089Z,2.20
2022-11-21T00:13:40.550Z,2.60
2022-11-21T00:16:26.408Z,1.70
2022-11-21T00:19:12.238Z,1.90
2022-11-21T00:21:58.274Z,1.80
2022-11-21T00:24:44.156Z,0.90
2022-11-21T00:27:30.201Z,0.75
2022-11-21T00:30:16.075Z,0.77
2022-11-21T00:33:01.975Z,0.70
2022-11-21T00:35:48.062Z,0.65
2022-11-21T00:38:33.725Z,0.50
2022-11-21T00:41:19.777Z,0.80
2022-11-21T00:44:05.693Z,0.60
2022-11-21T00:46:51.499Z,0.60
2022-11-21T00:49:37.537Z,0.60
2022-11-21T00:52:23.366Z,0.40
2022-11-21T00:55:09.941Z,0.60
2022-11-21T00:57:56.455Z,0.52
2022-11-21T01:00:42.515Z,0.50
2022-11-21T01:03:28.235Z,0.50
2022-11-21T01:06:15.656Z,0.50
2022-11-21T01:09:01.603Z,0.68
2022-11-21T01:11:47.564Z,0.50
2022-11-21T01:14:33.736Z,0.50
2022-11-21T01:17:19.445Z,0.40
2022-11-21T01:20:07.121Z,0.40
2022-11-21T01:22:53.223Z,0.68
2022-11-21T01:25:39.117Z,0.60
2022-11-21T01:28:25.063Z,0.80
2022-11-21T01:31:13.549Z,0.80
2022-11-21T01:34:00.313Z,0.57
2022-11-21T01:36:46.315Z,0.60
2022-11-21T01:39:32.112Z,0.60
2022-11-21T01:42:17.960Z,0.50
2022-11-21T01:45:42.679Z,0.80
2022-11-21T01:48:34.795Z,0.68
2022-11-21T01:51:46.295Z,0.50
2022-11-21T01:54:45.484Z,0.60
2022-11-21T01:57:57.613Z,0.52
2022-11-21T02:00:45.777Z,0.68
2022-11-21T02:03:34.557Z,0.65
2022-11-21T02:06:20.933Z,0.50
2022-11-21T02:09:07.261Z,0.68
2022-11-21T02:11:56.646Z,0.57
2022-11-21T02:14:44.050Z,0.52
2022-11-21T02:17:30.981Z,0.70
2022-11-21T02:20:21.800Z,0.50
2022-11-21T02:23:11.187Z,0.40
2022-11-21T02:25:57.499Z,0.47
2022-11-21T02:28:43.255Z,0.40
2022-11-21T02:31:29.274Z,0.40
2022-11-21T02:34:15.725Z,0.55
2022-11-21T02:37:02.335Z,0.35
2022-11-21T02:39:48.583Z,0.38
2022-11-21T02:42:59.354Z,0.50
2022-11-21T02:45:46.597Z,0.40
2022-11-21T02:48:32.492Z,0.50
2022-11-21T02:51:18.360Z,0.40
2022-11-21T02:54:04.428Z,0.45
2022-11-21T02:56:50.575Z,0.47
2022-11-21T02:59:36.454Z,0.47
2022-11-21T03:02:22.596Z,0.73
2022-11-21T03:05:10.315Z,0.40
2022-11-21T03:07:56.483Z,0.40
2022-11-21T03:10:42.575Z,0.30
2022-11-21T03:13:28.482Z,0.50
2022-11-21T03:16:14.406Z,0.40
2022-11-21T03:19:00.228Z,0.40
2022-11-21T03:21:46.033Z,0.40
2022-11-21T03:24:32.070Z,0.50
2022-11-21T03:27:18.545Z,0.40
2022-11-21T03:30:05.349Z,0.40
2022-11-21T03:32:51.697Z,0.40
2022-11-21T03:35:37.531Z,0.40
2022-11-21T03:38:23.939Z,0.28
2022-11-21T03:41:29.386Z,0.50
2022-11-21T03:44:15.231Z,0.50
2022-11-21T03:47:01.319Z,0.40
2022-11-21T03:49:47.536Z,0.35
2022-11-21T03:52:33.602Z,0.30
2022-11-21T03:55:20.054Z,0.40
2022-11-21T03:58:06.340Z,0.50
2022-11-21T04:00:52.313Z,0.57
2022-11-21T04:03:38.411Z,0.50
2022-11-21T04:06:24.927Z,0.32
2022-11-21T04:09:10.832Z,0.38
2022-11-21T04:11:56.836Z,0.35
2022-11-21T04:14:42.511Z,0.40
2022-11-21T04:17:28.586Z,0.38
2022-11-21T04:20:15.035Z,0.47
2022-11-21T04:23:00.904Z,0.40
2022-11-21T04:25:46.839Z,0.40
2022-11-21T04:28:32.720Z,0.50
2022-11-21T04:31:18.854Z,0.40
2022-11-21T04:34:04.815Z,0.40
2022-11-21T04:36:50.696Z,0.57
2022-11-21T04:39:36.608Z,0.60
2022-11-21T04:42:22.380Z,0.50
2022-11-21T04:45:09.214Z,0.40
2022-11-21T04:47:55.245Z,0.65
2022-11-21T04:50:40.993Z,0.50
2022-11-21T04:53:26.939Z,0.50
2022-11-21T04:56:16.806Z,22.98
2022-11-21T04:59:02.754Z,6.25
2022-11-21T05:01:48.541Z,1.63
2022-11-21T05:04:34.499Z,1.00
2022-11-21T05:07:20.281Z,0.80
2022-11-21T05:10:06.854Z,1.08
2022-11-21T05:13:19.127Z,0.70
2022-11-21T05:16:05.311Z,0.70
2022-11-21T05:18:51.559Z,0.70
2022-11-21T05:21:37.552Z,0.60
2022-11-21T05:24:23.646Z,0.43
2022-11-21T05:27:09.621Z,0.50
2022-11-21T05:29:55.674Z,0.60
2022-11-21T05:32:41.453Z,0.65
2022-11-21T05:35:27.186Z,0.60
2022-11-21T05:38:13.312Z,0.73
2022-11-21T05:40:59.372Z,0.60
2022-11-21T05:43:48.099Z,0.60
2022-11-21T05:46:34.261Z,0.60
2022-11-21T05:49:20.207Z,0.82
2022-11-21T05:52:06.005Z,1.00
2022-11-21T05:54:51.875Z,0.75
2022-11-21T05:57:37.715Z,0.52
2022-11-21T06:00:23.530Z,0.80
2022-11-21T06:03:28.085Z,0.70
2022-11-21T06:06:18.579Z,0.80
2022-11-21T06:09:07.430Z,0.60
2022-11-21T06:11:53.487Z,0.90
2022-11-21T06:14:39.373Z,0.88
2022-11-21T06:17:25.466Z,0.70
2022-11-21T06:20:11.719Z,1.00
2022-11-21T06:22:57.874Z,0.90
2022-11-21T06:25:44.245Z,2.08
2022-11-21T06:28:38.358Z,1.08
2022-11-21T06:31:26.197Z,2.33
2022-11-21T06:34:12.421Z,3.20
2022-11-21T06:36:58.372Z,1.38
2022-11-21T06:39:44.136Z,1.10
2022-11-21T06:42:30.043Z,1.48
2022-11-21T06:45:16.085Z,2.00
2022-11-21T06:48:03.446Z,1.30
2022-11-21T06:50:49.489Z,1.45
2022-11-21T06:53:35.426Z,1.20
2022-11-21T06:56:22.204Z,0.90
2022-11-21T06:59:08.423Z,0.82
2022-11-21T07:01:54.185Z,1.27
2022-11-21T07:04:40.428Z,1.00
2022-11-21T07:07:26.638Z,1.10
2022-11-21T07:10:12.772Z,1.00
2022-11-21T07:13:18.435Z,1.10
2022-11-21T07:16:10.707Z,1.30
2022-11-21T07:18:56.507Z,1.38
2022-11-21T07:21:43.195Z,1.00
2022-11-21T07:24:29.240Z,2.00
2022-11-21T07:27:15.287Z,1.90
2022-11-21T07:30:01.095Z,1.77
2022-11-21T07:32:46.999Z,1.30
2022-11-21T07:35:34.083Z,1.05
2022-11-21T07:38:19.928Z,1.13
2022-11-21T07:41:06.239Z,1.20
2022-11-21T07:43:52.188Z,1.20
2022-11-21T07:46:38.000Z,1.35
2022-11-21T07:49:24.035Z,1.08
2022-11-21T07:52:09.818Z,0.90
2022-11-21T07:54:56.474Z,1.10
2022-11-21T07:57:42.857Z,1.10
2022-11-21T08:00:29.895Z,0.90
2022-11-21T08:03:16.031Z,1.40
2022-11-21T08:06:06.393Z,1.50
2022-11-21T08:08:55.415Z,1.25
2022-11-21T08:11:41.624Z,1.23
2022-11-21T08:14:27.830Z,1.10
2022-11-21T08:17:14.220Z,1.48
2022-11-21T08:20:00.787Z,1.23
2022-11-21T08:22:46.834Z,1.50
2022-11-21T08:25:34.263Z,1.13
2022-11-21T08:28:20.399Z,1.25
2022-11-21T08:31:07.029Z,1.40
2022-11-21T08:33:56.981Z,1.50
2022-11-21T08:36:42.914Z,1.63
2022-11-21T08:39:31.094Z,1.60
2022-11-21T08:42:17.522Z,1.73
2022-11-21T08:45:06.028Z,1.40
2022-11-21T08:47:52.657Z,1.23
2022-11-21T08:50:39.160Z,1.45
2022-11-21T08:53:25.513Z,1.13
2022-11-21T08:56:11.376Z,1.40
2022-11-21T08:58:57.648Z,1.10
2022-11-21T09:01:44.154Z,0.90
2022-11-21T09:04:30.321Z,1.10
2022-11-21T09:07:16.775Z,1.10
2022-11-21T09:10:02.840Z,1.25
2022-11-21T09:12:48.642Z,1.05
2022-11-21T09:15:53.139Z,1.25
2022-11-21T09:18:39.322Z,1.17
2022-11-21T09:21:25.188Z,1.35
2022-11-21T09:24:11.382Z,1.30
2022-11-21T09:26:57.350Z,1.30
2022-11-21T09:29:45.812Z,1.13
2022-11-21T09:32:35.930Z,1.40
2022-11-21T09:35:22.024Z,1.27
2022-11-21T09:38:07.895Z,1.30
2022-11-21T09:41:00.644Z,1.50
2022-11-21T09:46:47.284Z,1.10
2022-11-21T09:49:40.717Z,1.20
2022-11-21T09:52:38.633Z,1.52
2022-11-21T09:55:47.262Z,0.98
2022-11-21T09:58:42.720Z,1.10
2022-11-21T10:01:29.825Z,1.17
2022-11-21T10:04:16.097Z,0.90
2022-11-21T10:07:10.400Z,1.40
2022-11-21T10:09:59.457Z,1.00
2022-11-21T10:13:10.184Z,0.90
2022-11-21T10:16:17.556Z,1.50
2022-11-21T10:19:24.701Z,0.70
2022-11-21T10:22:43.215Z,0.93
2022-11-21T10:25:35.004Z,0.70
2022-11-21T10:28:28.272Z,0.80
2022-11-21T10:31:15.574Z,0.80
2022-11-21T10:34:03.302Z,0.80
2022-11-21T10:36:52.930Z,1.45
2022-11-21T10:39:44.175Z,0.60
2022-11-21T10:42:36.018Z,0.70
2022-11-21T10:45:23.035Z,0.70
2022-11-21T10:48:09.098Z,0.80
2022-11-21T10:51:13.643Z,0.82
2022-11-21T10:54:30.308Z,0.93
2022-11-21T10:57:20.050Z,1.17
2022-11-21T11:00:15.003Z,0.68
2022-11-21T11:03:05.244Z,0.80
2022-11-21T11:05:59.361Z,0.90
2022-11-21T11:08:52.919Z,1.90
2022-11-21T11:11:39.138Z,0.95
2022-11-21T11:14:31.147Z,1.33
2022-11-21T11:17:17.319Z,1.17
2022-11-21T11:20:28.112Z,1.05
2022-11-21T11:23:20.255Z,0.93
2022-11-21T11:26:41.125Z,0.90
2022-11-21T11:29:32.320Z,0.60
2022-11-21T11:32:21.602Z,1.30
2022-11-21T11:35:17.251Z,1.13
2022-11-21T11:38:03.939Z,0.68
2022-11-21T11:40:50.325Z,0.60
2022-11-21T11:44:13.797Z,1.00
2022-11-21T11:50:13.256Z,1.33
2022-11-21T11:53:11.398Z,0.90
2022-11-21T11:56:03.640Z,0.80
2022-11-21T11:59:10.090Z,1.27
2022-11-21T12:02:01.056Z,1.10
2022-11-21T12:05:02.305Z,1.00
2022-11-21T12:11:57.716Z,0.98
2022-11-21T12:15:21.010Z,1.63
2022-11-21T12:18:16.291Z,2.03
2022-11-21T12:21:11.667Z,1.60
2022-11-21T12:23:58.510Z,1.60
2022-11-21T12:27:11.691Z,1.40
2022-11-21T12:30:09.429Z,2.13
2022-11-21T12:33:24.878Z,4.03
2022-11-21T12:36:18.820Z,3.70
2022-11-21T12:39:09.592Z,3.80
2022-11-21T12:42:50.944Z,5.93
2022-11-21T12:45:39.461Z,5.97
2022-11-21T12:49:21.539Z,5.72
2022-11-21T12:52:41.217Z,6.53
2022-11-21T12:55:40.965Z,9.43
2022-11-21T12:58:37.195Z,6.40
2022-11-21T13:01:53.686Z,7.00
2022-11-21T13:04:41.478Z,6.00
2022-11-21T13:07:32.491Z,6.13
2022-11-21T13:10:18.595Z,5.35
2022-11-21T13:13:17.341Z,5.65
2022-11-21T13:16:10.412Z,4.90
2022-11-21T13:18:56.388Z,5.03
2022-11-21T13:21:48.769Z,5.43
2022-11-21T13:24:47.987Z,5.72
2022-11-21T13:27:41.731Z,5.47
2022-11-21T13:30:27.847Z,7.97
2022-11-21T13:33:36.136Z,8.20
2022-11-21T13:36:28.682Z,7.15
2022-11-21T13:39:17.753Z,13.02
2022-11-21T13:42:23.270Z,7.82
2022-11-21T13:45:40.954Z,7.07
2022-11-21T13:48:59.619Z,4.03
2022-11-21T13:51:55.463Z,4.78
2022-11-21T13:54:59.852Z,5.38
2022-11-21T13:58:01.118Z,8.32
2022-11-21T14:01:12.434Z,9.07
2022-11-21T14:04:16.503Z,8.05
2022-11-21T14:07:28.495Z,9.43
2022-11-21T14:10:31.262Z,8.90
2022-11-21T14:13:34.949Z,9.82
2022-11-21T14:16:28.366Z,7.68
2022-11-21T14:19:19.178Z,7.15
2022-11-21T14:22:05.471Z,9.60
2022-11-21T14:24:52.484Z,9.70
2022-11-21T14:27:45.166Z,7.80
2022-11-21T14:30:34.992Z,10.25
2022-11-21T14:33:26.147Z,17.05
2022-11-21T14:36:21.878Z,8.25
2022-11-21T14:42:22.438Z,6.32
2022-11-21T14:45:16.194Z,12.88
2022-11-21T14:48:02.036Z,11.45
2022-11-21T14:50:48.050Z,19.98
2022-11-21T14:53:34.057Z,17.42
2022-11-21T14:56:28.571Z,13.07
2022-11-21T14:59:22.850Z,17.13
2022-11-21T15:02:20.451Z,8.68
2022-11-21T15:05:08.276Z,7.07
2022-11-21T15:08:10.453Z,14.60
2022-11-21T15:11:01.420Z,9.10
2022-11-21T15:16:56.470Z,6.47
2022-11-21T15:19:42.851Z,9.52
2022-11-21T15:22:34.357Z,12.52
2022-11-21T15:25:22.675Z,9.35
2022-11-21T15:28:14.569Z,8.68
2022-11-21T15:31:19.712Z,7.45
2022-11-21T15:34:33.878Z,5.22
2022-11-21T15:37:16.478Z,4.35
2022-11-21T15:40:02.478Z,3.25
2022-11-21T15:42:50.508Z,3.40
2022-11-21T15:45:36.574Z,5.65
2022-11-21T15:48:23.038Z,4.85
2022-11-21T15:51:10.982Z,5.38
2022-11-21T15:53:57.173Z,5.25
2022-11-21T15:56:43.266Z,3.83
2022-11-21T15:59:29.726Z,4.65
2022-11-21T16:02:16.082Z,6.38
2022-11-21T16:05:02.193Z,6.55
2022-11-21T16:07:48.780Z,5.50
2022-11-21T16:10:36.238Z,5.22
2022-11-21T16:13:22.059Z,4.75
2022-11-21T16:16:11.615Z,7.50
2022-11-21T16:18:58.417Z,8.38
2022-11-21T16:21:44.669Z,8.32
2022-11-21T16:24:31.254Z,8.80
2022-11-21T16:27:17.408Z,10.40
2022-11-21T16:30:04.122Z,10.68
2022-11-21T16:32:51.300Z,12.95
2022-11-21T16:35:40.588Z,13.73
2022-11-21T16:38:28.490Z,14.88
2022-11-21T16:41:17.193Z,17.00
2022-11-21T16:44:03.341Z,14.77
2022-11-21T16:46:51.666Z,15.20
2022-11-21T16:49:45.038Z,15.05
2022-11-21T16:52:35.744Z,11.02
2022-11-21T16:55:21.965Z,7.72
2022-11-21T16:58:08.035Z,6.82
2022-11-21T17:00:54.112Z,5.07
2022-11-21T17:03:40.768Z,6.82
2022-11-21T17:06:29.472Z,7.18
2022-11-21T17:09:16.610Z,7.60
2022-11-21T17:12:02.544Z,6.50
2022-11-21T17:14:48.547Z,6.90
2022-11-21T17:17:37.668Z,7.00
2022-11-21T17:20:23.784Z,7.22
2022-11-21T17:23:09.899Z,8.88
2022-11-21T17:25:55.926Z,14.52
2022-11-21T17:28:45.578Z,19.38
2022-11-21T17:31:32.576Z,15.25
2022-11-21T17:34:18.578Z,12.73
2022-11-21T17:37:04.495Z,11.63
2022-11-21T17:39:50.501Z,13.00
2022-11-21T17:42:36.566Z,12.48
2022-11-21T17:45:22.325Z,13.48
2022-11-21T17:48:08.221Z,11.80
2022-11-21T17:51:03.980Z,11.35
2022-11-21T17:53:51.151Z,10.93
2022-11-21T17:56:45.096Z,11.25
2022-11-21T17:59:34.787Z,11.68
2022-11-21T18:02:22.483Z,11.70
2022-11-21T18:05:08.559Z,11.00
2022-11-21T18:07:54.838Z,11.63
2022-11-21T18:10:43.770Z,10.23
2022-11-21T18:13:30.875Z,10.23
2022-11-21T18:16:21.832Z,9.70
2022-11-21T18:19:13.142Z,8.45
2022-11-21T18:21:59.452Z,6.82
2022-11-21T18:24:45.511Z,7.30
2022-11-21T18:27:31.437Z,9.77
2022-11-21T18:30:17.495Z,10.18
2022-11-21T18:33:04.004Z,8.07
2022-11-21T18:35:49.886Z,8.00
2022-11-21T18:38:49.317Z,9.60
2022-11-21T18:41:38.449Z,9.13
2022-11-21T18:44:24.652Z,9.52
2022-11-21T18:47:19.987Z,7.75
2022-11-21T18:50:07.461Z,8.95
2022-11-21T18:52:53.690Z,12.45
2022-11-21T18:55:39.703Z,10.05
2022-11-21T18:58:26.711Z,9.73
2022-11-21T19:01:23.519Z,10.10
2022-11-21T19:04:09.851Z,13.65
2022-11-21T19:06:56.236Z,18.73
2022-11-21T19:09:42.006Z,20.98
2022-11-21T19:12:28.084Z,19.70
2022-11-21T19:15:14.067Z,17.98
2022-11-21T19:17:59.933Z,23.35
2022-11-21T19:20:45.857Z,20.58
2022-11-21T19:23:32.389Z,23.42
2022-11-21T19:26:21.568Z,23.00
2022-11-21T19:29:07.994Z,22.42
2022-11-21T19:31:54.332Z,23.08
2022-11-21T19:34:40.191Z,22.10
2022-11-21T19:37:26.233Z,23.67
2022-11-21T19:40:13.180Z,18.15
2022-11-21T19:42:58.995Z,28.33
2022-11-21T19:45:44.948Z,20.02
2022-11-21T19:48:31.255Z,14.80
2022-11-21T19:51:18.023Z,21.35
2022-11-21T19:54:05.776Z,22.48
2022-11-21T19:56:51.771Z,23.27
2022-11-21T19:59:38.333Z,16.60
2022-11-21T20:02:26.624Z,15.50
2022-11-21T20:05:12.496Z,15.10
2022-11-21T20:08:03.809Z,12.82
2022-11-21T20:10:52.301Z,12.73
2022-11-21T20:13:43.540Z,12.25
2022-11-21T20:16:36.308Z,12.50
2022-11-21T20:19:24.296Z,14.90
2022-11-21T20:22:10.688Z,12.52
2022-11-21T20:24:57.322Z,11.07
2022-11-21T20:27:43.497Z,11.27
2022-11-21T20:30:29.713Z,10.05
2022-11-21T20:36:21.527Z,10.15
2022-11-21T20:39:18.768Z,13.48
2022-11-21T20:42:04.610Z,11.60
2022-11-21T20:45:54.320Z,14.60
2022-11-21T20:47:56.770Z,14.95
2022-11-21T20:53:55.189Z,12.25
2022-11-21T20:56:44.525Z,12.80
2022-11-21T20:59:30.736Z,11.98
2022-11-21T21:02:17.086Z,10.73
2022-11-21T21:05:02.821Z,10.68
2022-11-21T21:07:48.954Z,10.98
2022-11-21T21:10:58.264Z,10.73
2022-11-21T21:13:43.306Z,12.00
2022-11-21T21:16:34.482Z,12.27
2022-11-21T21:19:21.551Z,12.48
2022-11-21T21:22:09.028Z,16.52
2022-11-21T21:24:54.979Z,12.32
2022-11-21T21:27:40.829Z,12.45
2022-11-21T21:30:26.744Z,12.73
2022-11-21T21:33:13.959Z,12.27
2022-11-21T21:36:15.295Z,12.52
2022-11-21T21:39:02.258Z,12.95
2022-11-21T21:41:48.290Z,14.50
2022-11-21T21:44:34.477Z,15.65
2022-11-21T21:47:21.379Z,13.13
2022-11-21T21:50:14.407Z,13.27
2022-11-21T21:53:01.497Z,12.13
2022-11-21T21:55:47.454Z,16.33
2022-11-21T21:58:38.969Z,20.20
2022-11-21T22:01:30.380Z,18.77
2022-11-21T22:04:16.690Z,21.90
2022-11-21T22:07:03.443Z,31.92
2022-11-21T22:09:49.594Z,30.88
2022-11-21T22:12:37.842Z,28.70
2022-11-21T22:15:27.099Z,25.70
2022-11-21T22:18:12.927Z,22.98
2022-11-21T22:20:58.822Z,36.58
2022-11-21T22:24:09.300Z,25.20
2022-11-21T22:26:51.098Z,17.80
2022-11-21T22:29:36.953Z,18.70
2022-11-21T22:32:22.942Z,16.67
2022-11-21T22:35:08.816Z,15.90
2022-11-21T22:37:55.076Z,16.02
2022-11-21T22:40:40.957Z,16.42
2022-11-21T22:43:26.872Z,15.50
2022-11-21T22:46:13.201Z,14.02
2022-11-21T22:48:59.417Z,10.75
2022-11-21T22:51:45.493Z,10.48
2022-11-21T22:54:31.872Z,9.60
2022-11-21T22:57:19.249Z,10.00
2022-11-21T23:00:07.081Z,9.88
2022-11-21T23:02:53.326Z,11.48
2022-11-21T23:05:39.153Z,9.70
2022-11-21T23:08:25.266Z,9.85
2022-11-21T23:11:13.905Z,10.73
2022-11-21T23:13:59.989Z,11.82
2022-11-21T23:16:45.871Z,11.50
2022-11-21T23:19:32.048Z,11.05
2022-11-21T23:22:18.371Z,9.70
2022-11-21T23:25:04.493Z,10.00
2022-11-21T23:27:50.905Z,10.38
2022-11-21T23:30:37.241Z,11.30
2022-11-21T23:33:23.719Z,11.05
2022-11-21T23:36:09.980Z,10.68
2022-11-21T23:38:56.066Z,11.55
2022-11-21T23:41:42.339Z,12.00
2022-11-21T23:44:28.369Z,11.55
2022-11-21T23:47:14.227Z,12.50
2022-11-21T23:50:00.264Z,12.68
2022-11-21T23:52:47.529Z,12.70
2022-11-21T23:55:33.334Z,12.75
2022-11-21T23:58:19.304Z,13.35
